createdAt,value
2018-03-27T00:00:42.145Z,8.45
2018-03-27T00:01:42.131Z,8.31
2018-03-27T00:02:42.123Z,8.40
2018-03-27T00:03:42.105Z,8.31
2018-03-27T00:04:42.096Z,8.34
2018-03-27T00:05:42.084Z,8.36
2018-03-27T00:06:42.068Z,8.42
2018-03-27T00:07:42.053Z,8.42
2018-03-27T00:08:42.046Z,8.36
2018-03-27T00:09:42.027Z,8.29
2018-03-27T00:10:42.012Z,8.27
2018-03-27T00:11:42.002Z,8.25
2018-03-27T00:12:41.997Z,8.21
2018-03-27T00:13:41.976Z,8.27
2018-03-27T00:14:41.975Z,8.25
2018-03-27T00:15:41.946Z,8.22
2018-03-27T00:16:41.940Z,8.21
2018-03-27T00:17:41.926Z,8.12
2018-03-27T00:18:41.918Z,8.21
2018-03-27T00:19:41.897Z,8.07
2018-03-27T00:20:41.880Z,8.06
2018-03-27T00:21:41.867Z,8.00
2018-03-27T00:22:41.858Z,7.92
2018-03-27T00:23:41.841Z,7.85
2018-03-27T00:24:41.827Z,7.79
2018-03-27T00:25:41.814Z,7.74
2018-03-27T00:26:41.801Z,7.69
2018-03-27T00:27:41.787Z,7.70
2018-03-27T00:28:41.775Z,7.67
2018-03-27T00:29:41.760Z,7.62
2018-03-27T00:30:41.751Z,7.60
2018-03-27T00:31:41.732Z,7.62
2018-03-27T00:32:41.718Z,7.63
2018-03-27T00:33:41.710Z,7.62
2018-03-27T00:34:41.699Z,7.58
2018-03-27T00:35:41.681Z,7.70
2018-03-27T00:36:41.665Z,7.63
2018-03-27T00:37:41.653Z,7.52
2018-03-27T00:38:41.645Z,7.45
2018-03-27T00:39:41.624Z,7.47
2018-03-27T00:40:41.609Z,7.45
2018-03-27T00:41:41.596Z,7.39
2018-03-27T00:42:41.589Z,7.42
2018-03-27T00:43:41.574Z,7.42
2018-03-27T00:44:41.557Z,7.36
2018-03-27T00:45:41.548Z,7.32
2018-03-27T00:46:41.529Z,7.41
2018-03-27T00:47:41.514Z,7.54
2018-03-27T00:48:41.502Z,7.47
2018-03-27T00:49:41.489Z,7.36
2018-03-27T00:50:41.475Z,7.39
2018-03-27T00:51:41.461Z,7.39
2018-03-27T00:52:41.446Z,7.34
2018-03-27T00:53:41.434Z,7.27
2018-03-27T00:54:41.419Z,7.39
2018-03-27T00:55:41.409Z,7.44
2018-03-27T00:56:41.394Z,7.44
2018-03-27T00:57:41.377Z,7.26
2018-03-27T00:58:41.365Z,7.41
2018-03-27T00:59:41.351Z,7.41
2018-03-27T01:00:41.336Z,7.37
2018-03-27T01:01:41.323Z,7.42
2018-03-27T01:02:41.315Z,7.41
2018-03-27T01:03:41.301Z,7.42
2018-03-27T01:04:41.282Z,7.41
2018-03-27T01:05:41.269Z,7.41
2018-03-27T01:06:41.261Z,7.41
2018-03-27T01:07:41.242Z,7.37
2018-03-27T01:08:41.229Z,7.34
2018-03-27T01:09:41.214Z,7.45
2018-03-27T01:10:41.201Z,7.39
2018-03-27T01:11:41.186Z,7.34
2018-03-27T01:12:41.172Z,7.42
2018-03-27T01:13:41.166Z,7.47
2018-03-27T01:14:41.153Z,7.48
2018-03-27T01:15:41.138Z,7.45
2018-03-27T01:16:41.117Z,7.45
2018-03-27T01:17:41.105Z,7.50
2018-03-27T01:18:41.095Z,7.51
2018-03-27T01:19:41.077Z,7.50
2018-03-27T01:20:41.069Z,7.42
2018-03-27T01:21:41.049Z,7.42
2018-03-27T01:22:41.041Z,7.45
2018-03-27T01:23:41.022Z,7.42
2018-03-27T01:24:41.012Z,7.37
2018-03-27T01:25:40.994Z,7.30
2018-03-27T01:26:40.979Z,7.34
2018-03-27T01:27:40.973Z,7.39
2018-03-27T01:28:40.954Z,7.33
2018-03-27T01:29:40.939Z,7.44
2018-03-27T01:30:40.924Z,7.42
2018-03-27T01:31:40.920Z,7.34
2018-03-27T01:32:40.907Z,7.30
2018-03-27T01:33:40.884Z,7.41
2018-03-27T01:34:40.876Z,7.39
2018-03-27T01:35:40.864Z,7.32
2018-03-27T01:36:40.845Z,7.26
2018-03-27T01:37:40.830Z,7.29
2018-03-27T01:38:40.816Z,7.30
2018-03-27T01:39:40.809Z,7.26
2018-03-27T01:40:40.788Z,7.36
2018-03-27T01:41:40.775Z,7.41
2018-03-27T01:42:40.762Z,7.29
2018-03-27T01:43:40.747Z,7.42
2018-03-27T01:44:40.734Z,7.42
2018-03-27T01:45:40.722Z,7.47
2018-03-27T01:46:40.708Z,7.47
2018-03-27T01:47:40.693Z,7.41
2018-03-27T01:48:40.679Z,7.50
2018-03-27T01:49:40.669Z,7.51
2018-03-27T01:50:40.659Z,7.45
2018-03-27T01:51:40.642Z,7.39
2018-03-27T01:52:40.629Z,7.32
2018-03-27T01:53:40.615Z,7.36
2018-03-27T01:54:40.606Z,7.26
2018-03-27T01:55:40.582Z,7.29
2018-03-27T01:56:40.573Z,7.29
2018-03-27T01:57:40.554Z,7.18
2018-03-27T01:58:40.546Z,7.19
2018-03-27T01:59:40.526Z,7.23
2018-03-27T02:00:40.513Z,7.27
2018-03-27T02:01:40.498Z,7.26
2018-03-27T02:02:40.484Z,7.33
2018-03-27T02:03:40.470Z,7.44
2018-03-27T02:04:40.465Z,7.32
2018-03-27T02:05:40.450Z,7.41
2018-03-27T02:06:40.429Z,7.23
2018-03-27T02:07:40.415Z,7.26
2018-03-27T02:08:40.402Z,7.29
2018-03-27T02:09:40.388Z,7.26
2018-03-27T02:10:40.376Z,7.27
2018-03-27T02:11:40.376Z,7.27
2018-03-27T02:12:40.353Z,7.27
2018-03-27T02:13:40.332Z,7.26
2018-03-27T02:14:40.320Z,7.44
2018-03-27T02:15:40.306Z,7.41
2018-03-27T02:16:40.297Z,7.39
2018-03-27T02:17:40.277Z,7.27
2018-03-27T02:18:40.270Z,7.26
2018-03-27T02:19:40.256Z,7.26
2018-03-27T02:20:40.236Z,7.29
2018-03-27T02:21:40.226Z,7.33
2018-03-27T02:22:40.212Z,7.29
2018-03-27T02:23:40.197Z,7.33
2018-03-27T02:24:40.184Z,7.30
2018-03-27T02:25:40.175Z,7.34
2018-03-27T02:26:40.156Z,7.36
2018-03-27T02:27:40.140Z,7.47
2018-03-27T02:28:40.125Z,7.42
2018-03-27T02:29:40.112Z,7.44
2018-03-27T02:30:40.099Z,7.36
2018-03-27T02:31:40.091Z,7.41
2018-03-27T02:32:40.076Z,7.36
2018-03-27T02:33:40.057Z,7.41
2018-03-27T02:34:40.052Z,7.26
2018-03-27T02:35:40.036Z,7.21
2018-03-27T02:36:40.021Z,7.21
2018-03-27T02:37:40.008Z,7.26
2018-03-27T02:38:40.007Z,7.26
2018-03-27T02:39:39.975Z,7.27
2018-03-27T02:40:39.968Z,7.32
2018-03-27T02:41:39.956Z,7.24
2018-03-27T02:42:39.932Z,7.33
2018-03-27T02:43:39.922Z,7.26
2018-03-27T02:44:39.903Z,7.18
2018-03-27T02:45:39.897Z,7.19
2018-03-27T02:46:39.875Z,7.15
2018-03-27T02:47:39.867Z,7.18
2018-03-27T02:48:39.852Z,7.23
2018-03-27T02:49:39.838Z,7.14
2018-03-27T02:50:39.816Z,7.11
2018-03-27T02:51:39.804Z,7.15
2018-03-27T02:52:39.789Z,7.21
2018-03-27T02:53:39.781Z,7.19
2018-03-27T02:54:39.792Z,7.26
2018-03-27T02:55:39.746Z,7.29
2018-03-27T02:56:39.735Z,7.26
2018-03-27T02:57:39.719Z,7.19
2018-03-27T02:58:39.703Z,7.33
2018-03-27T02:59:39.691Z,7.32
2018-03-27T03:00:39.678Z,7.27
2018-03-27T03:01:39.673Z,7.24
2018-03-27T03:02:39.648Z,7.36
2018-03-27T03:03:39.637Z,7.33
2018-03-27T03:04:39.627Z,7.36
2018-03-27T03:05:39.606Z,7.27
2018-03-27T03:06:39.599Z,7.27
2018-03-27T03:07:39.593Z,7.29
2018-03-27T03:08:39.563Z,7.23
2018-03-27T03:09:39.554Z,7.12
2018-03-27T03:10:39.546Z,7.16
2018-03-27T03:11:39.522Z,7.16
2018-03-27T03:12:39.506Z,7.11
2018-03-27T03:13:39.500Z,7.16
2018-03-27T03:14:39.480Z,7.16
2018-03-27T03:15:39.467Z,7.21
2018-03-27T03:16:39.462Z,7.27
2018-03-27T03:17:39.437Z,7.30
2018-03-27T03:18:39.422Z,7.30
2018-03-27T03:19:39.415Z,7.19
2018-03-27T03:20:39.400Z,7.29
2018-03-27T03:21:39.382Z,7.14
2018-03-27T03:22:39.368Z,7.21
2018-03-27T03:23:39.352Z,7.16
2018-03-27T03:24:39.340Z,7.12
2018-03-27T03:25:39.327Z,7.19
2018-03-27T03:26:39.310Z,7.18
2018-03-27T03:27:39.296Z,7.21
2018-03-27T03:28:39.284Z,7.15
2018-03-27T03:29:39.275Z,7.21
2018-03-27T03:30:39.263Z,7.19
2018-03-27T03:31:39.243Z,7.12
2018-03-27T03:32:39.234Z,7.07
2018-03-27T03:33:39.224Z,7.18
2018-03-27T03:34:39.217Z,7.27
2018-03-27T03:35:39.190Z,7.29
2018-03-27T03:36:39.180Z,7.21
2018-03-27T03:37:39.159Z,7.16
2018-03-27T03:38:39.143Z,7.26
2018-03-27T03:39:39.129Z,7.24
2018-03-27T03:40:39.120Z,7.30
2018-03-27T03:41:39.104Z,7.30
2018-03-27T03:42:39.093Z,7.19
2018-03-27T03:43:39.072Z,7.12
2018-03-27T03:44:39.057Z,7.16
2018-03-27T03:45:39.045Z,7.14
2018-03-27T03:46:39.029Z,7.16
2018-03-27T03:47:39.022Z,7.08
2018-03-27T03:48:39.007Z,7.05
2018-03-27T03:49:38.987Z,7.07
2018-03-27T03:50:38.984Z,7.01
2018-03-27T03:51:38.960Z,7.07
2018-03-27T03:52:38.945Z,7.01
2018-03-27T03:53:38.933Z,7.14
2018-03-27T03:54:38.927Z,7.11
2018-03-27T03:55:38.904Z,7.04
2018-03-27T03:56:38.893Z,7.01
2018-03-27T03:57:38.877Z,7.15
2018-03-27T03:58:38.861Z,7.12
2018-03-27T03:59:38.853Z,7.01
2018-03-27T04:00:38.836Z,7.08
2018-03-27T04:01:38.819Z,7.07
2018-03-27T04:02:38.809Z,7.00
2018-03-27T04:03:38.799Z,7.01
2018-03-27T04:04:38.784Z,7.01
2018-03-27T04:05:38.773Z,6.96
2018-03-27T04:06:38.748Z,7.07
2018-03-27T04:07:38.735Z,7.04
2018-03-27T04:08:38.725Z,6.93
2018-03-27T04:09:38.711Z,6.94
2018-03-27T04:10:38.692Z,6.93
2018-03-27T04:11:38.680Z,6.86
2018-03-27T04:12:38.666Z,6.96
2018-03-27T04:13:38.659Z,6.86
2018-03-27T04:14:38.636Z,6.91
2018-03-27T04:15:38.624Z,6.89
2018-03-27T04:16:38.609Z,6.89
2018-03-27T04:17:38.599Z,6.91
2018-03-27T04:18:38.582Z,6.90
2018-03-27T04:19:38.566Z,6.89
2018-03-27T04:20:38.563Z,6.93
2018-03-27T04:21:38.539Z,6.93
2018-03-27T04:22:38.525Z,6.83
2018-03-27T04:23:38.511Z,6.86
2018-03-27T04:24:38.505Z,6.91
2018-03-27T04:25:38.488Z,6.91
2018-03-27T04:26:38.473Z,6.91
2018-03-27T04:27:38.462Z,6.94
2018-03-27T04:28:38.449Z,6.90
2018-03-27T04:29:38.444Z,6.94
2018-03-27T04:30:38.422Z,6.93
2018-03-27T04:31:38.420Z,6.91
2018-03-27T04:32:38.389Z,6.93
2018-03-27T04:33:38.383Z,6.99
2018-03-27T04:34:38.358Z,7.07
2018-03-27T04:35:38.352Z,7.07
2018-03-27T04:36:38.343Z,7.01
2018-03-27T04:37:38.325Z,7.05
2018-03-27T04:38:38.301Z,7.01
2018-03-27T04:39:38.293Z,6.99
2018-03-27T04:40:38.285Z,7.07
2018-03-27T04:41:38.267Z,7.12
2018-03-27T04:42:38.249Z,7.16
2018-03-27T04:43:38.238Z,7.19
2018-03-27T04:44:38.220Z,7.16
2018-03-27T04:45:38.210Z,7.15
2018-03-27T04:46:38.193Z,7.16
2018-03-27T04:47:38.175Z,7.19
2018-03-27T04:48:38.159Z,7.15
2018-03-27T04:49:38.146Z,7.27
2018-03-27T04:50:38.140Z,7.16
2018-03-27T04:51:38.118Z,7.26
2018-03-27T04:52:38.106Z,7.18
2018-03-27T04:53:38.092Z,7.11
2018-03-27T04:54:38.086Z,7.12
2018-03-27T04:55:38.063Z,7.14
2018-03-27T04:56:38.053Z,7.11
2018-03-27T04:57:38.033Z,7.18
2018-03-27T04:58:38.025Z,7.23
2018-03-27T04:59:38.013Z,7.12
2018-03-27T05:00:37.989Z,7.14
2018-03-27T05:01:37.976Z,7.14
2018-03-27T05:02:37.967Z,7.11
2018-03-27T05:03:37.950Z,7.15
2018-03-27T05:04:37.940Z,7.15
2018-03-27T05:05:37.925Z,7.19
2018-03-27T05:06:37.906Z,7.23
2018-03-27T05:07:37.892Z,7.23
2018-03-27T05:08:37.883Z,7.26
2018-03-27T05:09:37.864Z,7.21
2018-03-27T05:10:37.850Z,7.23
2018-03-27T05:11:37.835Z,7.27
2018-03-27T05:12:37.836Z,7.27
2018-03-27T05:13:37.808Z,7.29
2018-03-27T05:14:37.798Z,7.24
2018-03-27T05:15:37.785Z,7.30
2018-03-27T05:16:37.770Z,7.24
2018-03-27T05:17:37.751Z,7.29
2018-03-27T05:18:37.736Z,7.30
2018-03-27T05:19:37.724Z,7.30
2018-03-27T05:20:37.712Z,7.30
2018-03-27T05:21:37.695Z,7.21
2018-03-27T05:22:37.685Z,7.23
2018-03-27T05:23:37.666Z,7.19
2018-03-27T05:24:37.659Z,7.16
2018-03-27T05:25:37.644Z,7.14
2018-03-27T05:26:37.631Z,7.11
2018-03-27T05:27:37.616Z,7.08
2018-03-27T05:28:37.594Z,7.05
2018-03-27T05:29:37.593Z,7.04
2018-03-27T05:30:37.576Z,7.05
2018-03-27T05:31:37.551Z,7.14
2018-03-27T05:32:37.542Z,7.04
2018-03-27T05:33:37.531Z,7.07
2018-03-27T05:34:37.514Z,7.04
2018-03-27T05:35:37.496Z,7.07
2018-03-27T05:36:37.482Z,6.94
2018-03-27T05:37:37.468Z,7.07
2018-03-27T05:38:37.470Z,7.09
2018-03-27T05:39:37.445Z,7.09
2018-03-27T05:40:37.426Z,7.09
2018-03-27T05:41:37.413Z,7.09
2018-03-27T05:42:37.397Z,7.14
2018-03-27T05:43:37.387Z,7.07
2018-03-27T05:44:37.372Z,7.16
2018-03-27T05:45:37.356Z,7.11
2018-03-27T05:46:37.346Z,7.12
2018-03-27T05:47:37.329Z,7.24
2018-03-27T05:48:37.314Z,7.14
2018-03-27T05:49:37.312Z,7.14
2018-03-27T05:50:37.297Z,7.15
2018-03-27T05:51:37.288Z,7.24
2018-03-27T05:52:37.266Z,7.14
2018-03-27T05:53:37.257Z,7.12
2018-03-27T05:54:37.231Z,7.08
2018-03-27T05:55:37.225Z,7.18
2018-03-27T05:56:37.204Z,7.15
2018-03-27T05:57:37.191Z,7.15
2018-03-27T05:58:37.180Z,7.16
2018-03-27T05:59:37.165Z,7.23
2018-03-27T06:00:37.148Z,7.26
2018-03-27T06:01:37.150Z,7.32
2018-03-27T06:02:37.124Z,7.29
2018-03-27T06:03:37.112Z,7.29
2018-03-27T06:04:37.097Z,7.30
2018-03-27T06:05:37.079Z,7.34
2018-03-27T06:06:37.071Z,7.42
2018-03-27T06:07:37.049Z,7.39
2018-03-27T06:08:37.036Z,7.37
2018-03-27T06:09:37.029Z,7.39
2018-03-27T06:10:37.016Z,7.39
2018-03-27T06:11:36.999Z,7.39
2018-03-27T06:12:36.990Z,7.42
2018-03-27T06:13:36.968Z,7.44
2018-03-27T06:14:36.951Z,7.50
2018-03-27T06:15:36.944Z,7.45
2018-03-27T06:16:36.936Z,7.48
2018-03-27T06:17:36.919Z,7.42
2018-03-27T06:18:36.979Z,7.50
2018-03-27T06:19:36.901Z,7.45
2018-03-27T06:20:36.879Z,7.44
2018-03-27T06:21:36.868Z,7.55
2018-03-27T06:22:36.843Z,7.54
2018-03-27T06:23:36.833Z,7.54
2018-03-27T06:24:36.816Z,7.54
2018-03-27T06:25:36.806Z,7.62
2018-03-27T06:26:36.788Z,7.69
2018-03-27T06:27:36.787Z,7.73
2018-03-27T06:28:36.762Z,7.70
2018-03-27T06:29:36.752Z,7.74
2018-03-27T06:30:36.732Z,7.81
2018-03-27T06:31:36.720Z,7.77
2018-03-27T06:32:36.716Z,7.77
2018-03-27T06:33:36.693Z,7.81
2018-03-27T06:34:36.680Z,7.81
2018-03-27T06:35:36.665Z,7.77
2018-03-27T06:36:36.656Z,7.77
2018-03-27T06:37:36.642Z,7.84
2018-03-27T06:38:36.632Z,7.84
2018-03-27T06:39:36.611Z,7.77
2018-03-27T06:40:36.596Z,7.76
2018-03-27T06:41:36.594Z,7.92
2018-03-27T06:42:36.569Z,7.94
2018-03-27T06:43:36.558Z,8.02
2018-03-27T06:44:36.598Z,7.95
2018-03-27T06:45:36.529Z,7.94
2018-03-27T06:46:36.515Z,8.07
2018-03-27T06:47:36.512Z,8.12
2018-03-27T06:48:36.491Z,8.09
2018-03-27T06:49:36.476Z,8.21
2018-03-27T06:50:36.466Z,8.24
2018-03-27T06:51:36.455Z,8.22
2018-03-27T06:52:36.435Z,8.27
2018-03-27T06:53:36.428Z,8.37
2018-03-27T06:54:36.407Z,8.39
2018-03-27T06:55:36.402Z,8.29
2018-03-27T06:56:36.381Z,8.29
2018-03-27T06:57:36.375Z,8.31
2018-03-27T06:58:36.360Z,8.29
2018-03-27T06:59:36.343Z,8.40
2018-03-27T07:00:36.329Z,8.32
2018-03-27T07:01:36.316Z,8.40
2018-03-27T07:02:36.343Z,8.24
2018-03-27T07:03:36.295Z,8.28
2018-03-27T07:04:36.320Z,8.29
2018-03-27T07:05:36.370Z,8.22
2018-03-27T07:06:36.259Z,8.31
2018-03-27T07:07:36.237Z,8.40
2018-03-27T07:08:36.239Z,8.42
2018-03-27T07:09:36.214Z,8.34
2018-03-27T07:10:36.233Z,8.28
2018-03-27T07:11:36.185Z,8.31
2018-03-27T07:12:36.203Z,8.32
2018-03-27T07:13:36.183Z,8.31
2018-03-27T07:14:36.152Z,8.25
2018-03-27T07:15:36.140Z,8.31
2018-03-27T07:16:36.135Z,8.29
2018-03-27T07:17:36.112Z,8.31
2018-03-27T07:18:36.133Z,8.29
2018-03-27T07:19:36.101Z,8.28
2018-03-27T07:20:36.066Z,8.40
2018-03-27T07:21:36.055Z,8.32
2018-03-27T07:22:36.040Z,8.36
2018-03-27T07:23:36.036Z,8.36
2018-03-27T07:24:36.014Z,8.37
2018-03-27T07:25:36.001Z,8.45
2018-03-27T07:26:35.987Z,8.46
2018-03-27T07:27:35.980Z,8.43
2018-03-27T07:28:35.962Z,8.54
2018-03-27T07:29:35.952Z,8.65
2018-03-27T07:30:35.937Z,8.63
2018-03-27T07:31:35.924Z,8.73
2018-03-27T07:32:35.918Z,8.73
2018-03-27T07:33:35.906Z,8.71
2018-03-27T07:34:35.883Z,8.86
2018-03-27T07:35:35.874Z,8.91
2018-03-27T07:36:35.863Z,8.89
2018-03-27T07:37:35.846Z,8.88
2018-03-27T07:38:35.838Z,8.98
2018-03-27T07:39:35.820Z,9.13
2018-03-27T07:40:35.816Z,9.10
2018-03-27T07:41:35.801Z,9.13
2018-03-27T07:42:35.789Z,9.15
2018-03-27T07:43:35.773Z,9.22
2018-03-27T07:44:35.771Z,9.24
2018-03-27T07:45:35.744Z,9.06
2018-03-27T07:46:35.732Z,9.12
2018-03-27T07:47:35.721Z,9.15
2018-03-27T07:48:35.713Z,9.23
2018-03-27T07:49:35.763Z,9.24
2018-03-27T07:50:35.681Z,9.24
2018-03-27T07:51:35.671Z,9.23
2018-03-27T07:52:35.658Z,9.31
2018-03-27T07:53:35.646Z,9.31
2018-03-27T07:54:35.631Z,9.30
2018-03-27T07:55:35.621Z,9.32
2018-03-27T07:56:35.607Z,9.27
2018-03-27T07:57:35.595Z,9.38
2018-03-27T07:58:35.589Z,9.48
2018-03-27T07:59:35.569Z,9.59
2018-03-27T08:00:35.557Z,9.80
2018-03-27T08:01:35.548Z,9.89
2018-03-27T08:02:35.534Z,9.96
2018-03-27T08:03:35.577Z,9.99
2018-03-27T08:04:35.507Z,10.04
2018-03-27T08:05:35.503Z,10.04
2018-03-27T08:06:35.491Z,10.04
2018-03-27T08:07:35.473Z,10.09
2018-03-27T08:08:35.464Z,10.01
2018-03-27T08:09:35.450Z,10.01
2018-03-27T08:10:35.438Z,10.17
2018-03-27T08:11:35.429Z,10.20
2018-03-27T08:12:35.414Z,10.14
2018-03-27T08:13:35.404Z,10.24
2018-03-27T08:14:35.394Z,10.22
2018-03-27T08:15:35.378Z,10.18
2018-03-27T08:16:35.373Z,10.20
2018-03-27T08:17:35.360Z,10.16
2018-03-27T08:18:35.342Z,10.16
2018-03-27T08:19:35.330Z,10.26
2018-03-27T08:20:35.320Z,10.28
2018-03-27T08:21:35.355Z,10.38
2018-03-27T08:22:35.296Z,10.39
2018-03-27T08:23:35.290Z,10.38
2018-03-27T08:24:35.275Z,10.49
2018-03-27T08:25:35.268Z,10.54
2018-03-27T08:26:35.257Z,10.54
2018-03-27T08:27:35.248Z,10.58
2018-03-27T08:28:35.229Z,10.49
2018-03-27T08:29:35.219Z,10.60
2018-03-27T08:30:35.212Z,10.68
2018-03-27T08:31:35.195Z,10.70
2018-03-27T08:32:35.183Z,10.80
2018-03-27T08:33:35.173Z,10.81
2018-03-27T08:34:35.166Z,10.83
2018-03-27T08:35:35.152Z,10.93
2018-03-27T08:36:35.139Z,10.93
2018-03-27T08:37:35.130Z,10.84
2018-03-27T08:38:35.119Z,10.86
2018-03-27T08:39:35.109Z,10.84
2018-03-27T08:40:35.097Z,10.83
2018-03-27T08:41:35.096Z,10.83
2018-03-27T08:42:35.078Z,10.75
2018-03-27T08:43:35.062Z,10.80
2018-03-27T08:44:35.057Z,10.86
2018-03-27T08:45:35.046Z,10.88
2018-03-27T08:46:35.035Z,10.87
2018-03-27T08:47:35.020Z,10.83
2018-03-27T08:48:35.010Z,10.86
2018-03-27T08:49:34.999Z,10.84
2018-03-27T08:50:34.986Z,10.83
2018-03-27T08:51:34.976Z,10.90
2018-03-27T08:52:34.966Z,10.87
2018-03-27T08:53:34.954Z,10.84
2018-03-27T08:54:34.941Z,10.86
2018-03-27T08:55:34.932Z,10.95
2018-03-27T08:56:34.926Z,10.94
2018-03-27T08:57:34.919Z,10.99
2018-03-27T08:58:34.904Z,10.86
2018-03-27T08:59:34.888Z,10.94
2018-03-27T09:00:34.884Z,10.99
2018-03-27T09:01:34.872Z,10.99
2018-03-27T09:02:34.862Z,10.99
2018-03-27T09:03:34.848Z,10.98
2018-03-27T09:04:34.837Z,10.95
2018-03-27T09:05:34.824Z,10.98
2018-03-27T09:06:34.819Z,11.01
2018-03-27T09:07:34.808Z,10.98
2018-03-27T09:08:34.797Z,11.02
2018-03-27T09:09:34.780Z,11.05
2018-03-27T09:10:34.772Z,11.03
2018-03-27T09:11:34.765Z,11.01
2018-03-27T09:12:34.755Z,11.03
2018-03-27T09:13:34.738Z,11.06
2018-03-27T09:14:34.726Z,11.06
2018-03-27T09:15:34.717Z,11.12
2018-03-27T09:16:34.706Z,11.09
2018-03-27T09:17:34.694Z,11.20
2018-03-27T09:18:34.686Z,11.36
2018-03-27T09:19:34.674Z,11.35
2018-03-27T09:20:34.665Z,11.39
2018-03-27T09:21:34.651Z,11.45
2018-03-27T09:22:34.640Z,11.49
2018-03-27T09:23:34.631Z,11.60
2018-03-27T09:24:34.625Z,11.59
2018-03-27T09:25:34.609Z,11.53
2018-03-27T09:26:34.602Z,11.63
2018-03-27T09:27:34.587Z,11.63
2018-03-27T09:28:34.616Z,11.67
2018-03-27T09:29:34.567Z,11.77
2018-03-27T09:30:34.563Z,11.78
2018-03-27T09:31:34.545Z,11.81
2018-03-27T09:32:34.537Z,11.97
2018-03-27T09:33:34.527Z,12.12
2018-03-27T09:34:34.514Z,12.21
2018-03-27T09:35:34.508Z,12.19
2018-03-27T09:36:34.495Z,12.18
2018-03-27T09:37:34.488Z,12.34
2018-03-27T09:38:34.474Z,12.31
2018-03-27T09:39:34.464Z,12.26
2018-03-27T09:40:34.457Z,12.40
2018-03-27T09:41:34.446Z,12.56
2018-03-27T09:42:34.434Z,12.56
2018-03-27T09:43:34.437Z,12.59
2018-03-27T09:44:34.423Z,12.49
2018-03-27T09:45:34.442Z,12.52
2018-03-27T09:46:34.394Z,12.52
2018-03-27T09:47:34.387Z,12.38
2018-03-27T09:48:34.381Z,12.29
2018-03-27T09:49:34.367Z,12.30
2018-03-27T09:50:34.354Z,12.30
2018-03-27T09:51:34.345Z,12.25
2018-03-27T09:52:34.336Z,12.12
2018-03-27T09:53:34.325Z,12.07
2018-03-27T09:54:34.317Z,12.04
2018-03-27T09:55:34.346Z,12.03
2018-03-27T09:56:34.303Z,11.97
2018-03-27T09:57:34.292Z,11.98
2018-03-27T09:58:34.276Z,11.94
2018-03-27T09:59:34.268Z,11.88
2018-03-27T10:00:34.262Z,11.90
2018-03-27T10:01:34.248Z,11.87
2018-03-27T10:02:34.243Z,11.85
2018-03-27T10:03:34.232Z,11.84
2018-03-27T10:04:34.220Z,11.94
2018-03-27T10:05:34.208Z,11.97
2018-03-27T10:06:34.194Z,11.88
2018-03-27T10:07:34.187Z,11.85
2018-03-27T10:08:34.175Z,11.77
2018-03-27T10:09:34.171Z,11.62
2018-03-27T10:10:34.154Z,11.77
2018-03-27T10:11:34.146Z,11.75
2018-03-27T10:12:34.137Z,11.79
2018-03-27T10:13:34.128Z,11.84
2018-03-27T10:14:34.119Z,11.74
2018-03-27T10:15:34.104Z,11.78
2018-03-27T10:16:34.102Z,11.62
2018-03-27T10:17:34.086Z,11.53
2018-03-27T10:18:34.078Z,11.56
2018-03-27T10:19:34.064Z,11.51
2018-03-27T10:20:34.051Z,11.60
2018-03-27T10:21:34.050Z,11.59
2018-03-27T10:22:34.032Z,11.45
2018-03-27T10:23:34.028Z,11.60
2018-03-27T10:24:34.011Z,11.53
2018-03-27T10:25:34.000Z,11.49
2018-03-27T10:26:33.994Z,11.46
2018-03-27T10:27:33.979Z,11.42
2018-03-27T10:28:33.975Z,11.62
2018-03-27T10:29:33.960Z,11.64
2018-03-27T10:30:33.948Z,11.64
2018-03-27T10:31:33.937Z,11.66
2018-03-27T10:32:33.926Z,11.64
2018-03-27T10:33:33.923Z,11.67
2018-03-27T10:34:33.905Z,11.62
2018-03-27T10:35:33.895Z,11.60
2018-03-27T10:36:33.883Z,11.46
2018-03-27T10:37:33.874Z,11.46
2018-03-27T10:38:33.921Z,11.38
2018-03-27T10:39:33.853Z,11.36
2018-03-27T10:40:33.845Z,11.39
2018-03-27T10:41:33.830Z,11.23
2018-03-27T10:42:33.820Z,11.26
2018-03-27T10:43:33.813Z,11.38
2018-03-27T10:44:33.802Z,11.39
2018-03-27T10:45:33.792Z,11.35
2018-03-27T10:46:33.790Z,11.36
2018-03-27T10:47:33.765Z,11.42
2018-03-27T10:48:33.755Z,11.35
2018-03-27T10:49:33.746Z,11.36
2018-03-27T10:50:33.733Z,11.49
2018-03-27T10:51:33.728Z,11.54
2018-03-27T10:52:33.716Z,11.57
2018-03-27T10:53:33.710Z,11.60
2018-03-27T10:54:33.691Z,11.62
2018-03-27T10:55:33.679Z,11.64
2018-03-27T10:56:33.677Z,11.75
2018-03-27T10:57:33.659Z,11.85
2018-03-27T10:58:33.653Z,11.75
2018-03-27T10:59:33.659Z,11.78
2018-03-27T11:00:33.635Z,11.70
2018-03-27T11:01:33.621Z,11.72
2018-03-27T11:02:33.605Z,11.72
2018-03-27T11:03:33.603Z,11.82
2018-03-27T11:04:33.585Z,11.78
2018-03-27T11:05:33.575Z,11.81
2018-03-27T11:06:33.564Z,11.90
2018-03-27T11:07:33.555Z,11.79
2018-03-27T11:08:33.543Z,11.81
2018-03-27T11:09:33.540Z,11.74
2018-03-27T11:10:33.523Z,11.66
2018-03-27T11:11:33.511Z,11.64
2018-03-27T11:12:33.508Z,11.66
2018-03-27T11:13:33.491Z,11.60
2018-03-27T11:14:33.480Z,11.44
2018-03-27T11:15:33.469Z,11.51
2018-03-27T11:16:33.461Z,11.48
2018-03-27T11:17:33.482Z,11.36
2018-03-27T11:18:33.446Z,11.23
2018-03-27T11:19:33.436Z,11.26
2018-03-27T11:20:33.417Z,11.21
2018-03-27T11:21:33.412Z,11.27
2018-03-27T11:22:33.399Z,11.21
2018-03-27T11:23:33.390Z,11.24
2018-03-27T11:24:33.377Z,11.33
2018-03-27T11:25:33.366Z,11.51
2018-03-27T11:26:33.357Z,11.62
2018-03-27T11:27:33.343Z,11.66
2018-03-27T11:28:33.332Z,11.81
2018-03-27T11:29:33.336Z,11.84
2018-03-27T11:30:33.311Z,12.05
2018-03-27T11:31:33.303Z,12.19
2018-03-27T11:32:33.301Z,12.30
2018-03-27T11:33:33.283Z,12.31
2018-03-27T11:34:33.271Z,12.48
2018-03-27T11:35:33.260Z,12.52
2018-03-27T11:36:33.252Z,12.62
2018-03-27T11:37:33.239Z,12.61
2018-03-27T11:38:33.240Z,12.76
2018-03-27T11:39:33.225Z,12.80
2018-03-27T11:40:33.210Z,12.79
2018-03-27T11:41:33.205Z,12.80
2018-03-27T11:42:33.191Z,12.74
2018-03-27T11:43:33.181Z,12.66
2018-03-27T11:44:33.169Z,12.61
2018-03-27T11:45:33.161Z,12.49
2018-03-27T11:46:33.151Z,12.41
2018-03-27T11:47:33.140Z,12.38
2018-03-27T11:48:33.136Z,12.37
2018-03-27T11:49:33.120Z,12.41
2018-03-27T11:50:33.112Z,12.41
2018-03-27T11:51:33.100Z,12.44
2018-03-27T11:52:33.091Z,12.33
2018-03-27T11:53:33.088Z,12.33
2018-03-27T11:54:33.108Z,12.21
2018-03-27T11:55:33.065Z,12.12
2018-03-27T11:56:33.071Z,12.08
2018-03-27T11:57:33.041Z,12.21
2018-03-27T11:58:33.029Z,12.05
2018-03-27T11:59:33.021Z,12.08
2018-03-27T12:00:33.015Z,12.00
2018-03-27T12:01:33.020Z,12.07
2018-03-27T12:02:32.996Z,12.16
2018-03-27T12:03:32.982Z,12.08
2018-03-27T12:04:32.969Z,12.07
2018-03-27T12:05:32.966Z,12.19
2018-03-27T12:06:32.957Z,12.30
2018-03-27T12:07:32.942Z,12.40
2018-03-27T12:08:32.931Z,12.62
2018-03-27T12:09:32.923Z,12.69
2018-03-27T12:10:32.916Z,12.94
2018-03-27T12:11:32.905Z,12.98
2018-03-27T12:12:32.899Z,13.07
2018-03-27T12:13:32.886Z,13.07
2018-03-27T12:14:32.869Z,13.16
2018-03-27T12:15:32.865Z,13.24
2018-03-27T12:16:32.850Z,13.21
2018-03-27T12:17:32.840Z,12.98
2018-03-27T12:18:32.832Z,12.95
2018-03-27T12:19:32.821Z,13.01
2018-03-27T12:20:32.822Z,13.10
2018-03-27T12:21:32.803Z,13.12
2018-03-27T12:22:32.795Z,13.14
2018-03-27T12:23:32.781Z,13.25
2018-03-27T12:24:32.776Z,13.39
2018-03-27T12:25:32.767Z,13.48
2018-03-27T12:26:32.753Z,13.54
2018-03-27T12:27:32.743Z,13.51
2018-03-27T12:28:32.734Z,13.50
2018-03-27T12:29:32.726Z,13.48
2018-03-27T12:30:32.714Z,13.47
2018-03-27T12:31:32.705Z,13.50
2018-03-27T12:32:32.699Z,13.53
2018-03-27T12:33:32.694Z,13.53
2018-03-27T12:34:32.685Z,13.50
2018-03-27T12:35:32.670Z,13.69
2018-03-27T12:36:32.665Z,13.72
2018-03-27T12:37:32.651Z,13.79
2018-03-27T12:38:32.642Z,13.94
2018-03-27T12:39:32.638Z,13.94
2018-03-27T12:40:32.623Z,14.02
2018-03-27T12:41:32.641Z,14.11
2018-03-27T12:42:32.604Z,14.17
2018-03-27T12:43:32.609Z,14.34
2018-03-27T12:44:32.592Z,14.45
2018-03-27T12:45:32.581Z,14.48
2018-03-27T12:46:32.572Z,14.44
2018-03-27T12:47:32.564Z,14.56
2018-03-27T12:48:32.555Z,14.46
2018-03-27T12:49:32.548Z,14.57
2018-03-27T12:50:32.535Z,14.56
2018-03-27T12:51:32.528Z,14.46
2018-03-27T12:52:32.520Z,14.38
2018-03-27T12:53:32.517Z,14.20
2018-03-27T12:54:32.506Z,14.31
2018-03-27T12:55:32.496Z,14.27
2018-03-27T12:56:32.495Z,14.39
2018-03-27T12:57:32.485Z,14.38
2018-03-27T12:58:32.477Z,14.21
2018-03-27T12:59:32.467Z,14.13
2018-03-27T13:00:32.460Z,14.16
2018-03-27T13:01:32.445Z,14.24
2018-03-27T13:02:32.439Z,14.27
2018-03-27T13:03:32.431Z,14.09
2018-03-27T13:04:32.420Z,14.13
2018-03-27T13:05:32.475Z,14.17
2018-03-27T13:06:32.403Z,14.11
2018-03-27T13:07:32.395Z,14.19
2018-03-27T13:08:32.385Z,14.12